Briefing drone pour Eymet

Rechercher une autre localisation

Conditions de vol :


Nous sommes le : Vendredi 06 août 2021
Il est 00:40 UTC (02:40 LT)

Lever de soleil : 04:24 UTC (06:24 LT)
Coucher de soleil : 19:44 UTC (21:44 LT)

Météo

L'essentiel des conditions de vol

VIGILANCE MÉTÉO FRANCE - Dordogne (24)
Pas de vigilances particulieres
CARTE TEMSI
CARTES DES FRONTS
METAR de LFBE
LFBE 060030Z AUTO 25007KT CAVOK 19/15 Q1012 NOSIG

Date d'émission: 06/08/2021
Heure d'émission: 00:30 UTC
Vent: 250° pour 7 KT (13 km/h)
Visibilité horizontale: > 10 km
Plafond : Plafond et visibilité OK (CAVOK)
Température: 19 °C
Point de rosée: 15 °C
Humidité: 78%
Pression (QNH): 1012 hPa
Conditions: Pas de changement dans les 2 heures (NOSIG)
TAF de LFBE
LFBE 052003Z 0520/0612 CNL

Conditions prévues :

Heure d'émission : Bulletin éffectué le 05 à 20:00 UTC
Prévision : Valide du 05 a 20:00 UTC au 06 a 12:00 UTC
Nuages : à 0ft (0 m)
WEBCAM POUR EYMET

Réglementation

Voler en sécurité

CARTES AERONAUTIQUE 1/500.000
CARTES VAC (LFBE)
SUP AIP




Chargement des AIP...
NOTAM (EYMET + Terrain à proximité / FIR )




Chargement des NOTAMS...
CONTACT PREFECTURE 24


Avertissement : Les données mises à disposition sont indicatives. Oxygène Drone ne pourra être tenu responsable de dégâts causés aux biens et aux personnes.